Time;durP1;ratioP1;P1;durP2;ratioP2;P2;SDS_P1;SDS_P2;PMS_P1;PMS_P2;Temp;Humidity;BMP_temperature;BMP_pressure;BME280_temperature;BME280_humidity;BME280_pressure;Samples;Min_cycle;Max_cycle;Signal;HPM_P1;HPM_P2
2022/08/30 00:01:04;;;;;;;10.80;8.00;;;;;;;16.44;69.65;100257.83;107843;1269;94640;-70
2022/08/30 00:03:39;;;;;;;11.60;7.90;;;;;;;16.43;69.88;100254.15;106884;1270;139043;-70
2022/08/30 00:06:13;;;;;;;10.90;7.10;;;;;;;16.41;69.91;100255.52;107045;1270;108817;-70
2022/08/30 00:08:47;;;;;;;12.80;7.70;;;;;;;16.40;70.01;100251.20;107722;1270;138610;-70
2022/08/30 00:11:22;;;;;;;13.90;7.60;;;;;;;16.36;70.14;100254.39;107837;1270;94809;-70
2022/08/30 00:13:56;;;;;;;14.30;7.80;;;;;;;16.34;70.10;100258.70;106709;1270;138897;-69
2022/08/30 00:16:28;;;;;;;18.40;8.40;;;;;;;16.32;70.27;100262.62;106522;1269;110919;-70
2022/08/30 00:19:01;;;;;;;12.60;7.20;;;;;;;16.29;70.22;100260.70;107857;1270;108859;-70
2022/08/30 00:21:33;;;;;;;15.10;7.90;;;;;;;16.26;70.41;100261.94;107690;1270;138569;-70
2022/08/30 00:24:05;;;;;;;10.30;7.60;;;;;;;16.24;70.53;100260.65;107793;1270;95083;-70
2022/08/30 00:26:38;;;;;;;11.20;7.70;;;;;;;16.23;70.50;100259.31;107715;1270;139030;-70
2022/08/30 00:29:10;;;;;;;10.60;7.80;;;;;;;16.19;70.58;100257.45;107789;1271;111115;-70
2022/08/30 00:31:42;;;;;;;15.10;8.50;;;;;;;16.15;70.79;100264.66;107729;1268;138558;-70
2022/08/30 00:34:15;;;;;;;12.60;8.10;;;;;;;16.14;70.91;100261.39;106765;1270;108837;-70
2022/08/30 00:36:47;;;;;;;9.50;8.00;;;;;;;16.14;70.87;100262.42;106658;1270;96587;-70
2022/08/30 00:39:19;;;;;;;13.50;7.60;;;;;;;16.16;71.04;100258.31;106162;1270;138764;-70
2022/08/30 00:41:51;;;;;;;13.70;7.70;;;;;;;16.16;71.06;100255.52;106249;1270;111189;-69
2022/08/30 00:44:24;;;;;;;12.30;7.80;;;;;;;16.13;71.05;100253.22;106140;1270;138593;-70
2022/08/30 00:46:56;;;;;;;12.40;7.60;;;;;;;16.09;71.11;100257.98;106235;1270;106766;-69
2022/08/30 00:49:30;;;;;;;9.10;7.00;;;;;;;16.07;71.39;100256.14;106126;1270;140279;-68
2022/08/30 00:52:03;;;;;;;12.10;7.90;;;;;;;16.07;71.49;100257.05;106251;1270;96579;-69
2022/08/30 00:54:37;;;;;;;12.30;8.10;;;;;;;16.05;71.62;100250.54;107842;1270;110949;-70
2022/08/30 00:57:10;;;;;;;14.20;8.10;;;;;;;16.04;71.69;100251.46;107714;1270;138800;-69
2022/08/30 00:59:43;;;;;;;11.40;7.70;;;;;;;16.04;71.83;100253.54;107857;1270;108346;-70
2022/08/30 01:02:16;;;;;;;10.70;7.40;;;;;;;16.05;72.00;100251.05;107698;1270;139213;-70
2022/08/30 01:04:50;;;;;;;11.60;8.10;;;;;;;16.06;71.99;100250.12;106848;1271;96495;-69
2022/08/30 01:07:22;;;;;;;12.50;7.70;;;;;;;16.08;72.05;100254.19;106210;1271;139921;-69
2022/08/30 01:09:54;;;;;;;13.30;8.30;;;;;;;16.10;72.07;100253.73;106380;1271;109049;-69
2022/08/30 01:12:27;;;;;;;12.00;8.20;;;;;;;16.09;71.97;100260.11;106204;1271;107759;-70
2022/08/30 01:15:00;;;;;;;15.30;8.50;;;;;;;16.07;72.05;100258.45;106127;1271;138620;-69
2022/08/30 01:17:33;;;;;;;9.80;7.70;;;;;;;16.06;72.22;100260.45;106295;1271;96564;-69
2022/08/30 01:20:10;;;;;;;16.80;8.60;;;;;;;16.04;72.24;100261.41;106651;1270;138228;-69
2022/08/30 01:22:46;;;;;;;14.50;8.00;;;;;;;16.01;72.26;100263.33;106585;1271;106707;-71
2022/08/30 01:25:22;;;;;;;12.80;8.90;;;;;;;16.01;72.47;100263.50;106085;1271;138916;-67
2022/08/30 01:28:00;;;;;;;12.10;8.20;;;;;;;15.99;72.49;100263.42;106243;1271;97255;-71
2022/08/30 01:30:34;;;;;;;13.00;8.30;;;;;;;15.96;72.53;100261.33;106250;1271;96491;-69
2022/08/30 01:33:07;;;;;;;11.60;8.50;;;;;;;15.93;72.62;100257.79;106153;1271;138792;-71
2022/08/30 01:35:47;;;;;;;14.60;8.70;;;;;;;15.91;72.73;100258.79;106241;1271;109430;-69
2022/08/30 01:38:21;;;;;;;10.00;8.20;;;;;;;15.89;72.80;100260.31;107634;1271;139226;-70
2022/08/30 01:40:59;;;;;;;14.70;8.80;;;;;;;15.86;72.87;100260.47;107783;1271;94901;-70
2022/08/30 01:43:31;;;;;;;12.50;8.40;;;;;;;15.85;72.95;100264.25;107178;1270;138754;-70
2022/08/30 01:46:03;;;;;;;14.00;8.30;;;;;;;15.81;73.05;100262.70;106326;1270;111778;-70
2022/08/30 01:48:35;;;;;;;12.80;9.10;;;;;;;15.79;73.07;100260.51;106238;1270;109190;-70
2022/08/30 01:51:09;;;;;;;11.50;8.60;;;;;;;15.75;73.21;100259.99;106123;1270;140354;-70
2022/08/30 01:53:43;;;;;;;11.80;8.30;;;;;;;15.73;73.23;100259.94;106392;1271;96436;-70
2022/08/30 01:56:15;;;;;;;12.20;8.60;;;;;;;15.72;73.46;100259.81;107684;1271;139036;-70
2022/08/30 01:58:47;;;;;;;13.30;8.70;;;;;;;15.70;73.48;100266.40;107787;1271;111840;-70
2022/08/30 02:01:21;;;;;;;10.50;8.20;;;;;;;15.68;73.56;100261.05;107702;1271;139145;-70
2022/08/30 02:03:55;;;;;;;14.10;8.90;;;;;;;15.65;73.63;100259.65;107816;1270;107512;-70
2022/08/30 02:06:28;;;;;;;11.20;8.00;;;;;;;15.60;73.61;100259.20;107368;1270;94819;-69
2022/08/30 02:09:00;;;;;;;13.70;8.70;;;;;;;15.58;73.82;100253.72;106213;1270;138344;-69
2022/08/30 02:11:32;;;;;;;12.40;8.90;;;;;;;15.53;73.89;100256.04;107830;1270;111243;-70
2022/08/30 02:14:05;;;;;;;11.40;8.80;;;;;;;15.53;74.06;100256.77;106808;1270;139469;-69
2022/08/30 02:16:41;;;;;;;11.90;9.00;;;;;;;15.50;74.23;100258.52;106228;1270;108882;-69
2022/08/30 02:19:13;;;;;;;13.80;8.90;;;;;;;15.48;74.35;100259.85;106319;1270;96483;-69
2022/08/30 02:21:45;;;;;;;11.70;9.40;;;;;;;15.46;74.50;100257.17;106302;1270;96578;-69
2022/08/30 02:24:17;;;;;;;18.10;9.70;;;;;;;15.43;74.60;100256.20;106287;1270;111109;-69
2022/08/30 02:26:51;;;;;;;13.70;9.40;;;;;;;15.42;74.57;100255.93;106183;1270;139107;-70
2022/08/30 02:29:24;;;;;;;13.70;9.20;;;;;;;15.41;74.77;100254.38;106250;1270;108801;-70
2022/08/30 02:31:56;;;;;;;16.50;10.10;;;;;;;15.40;74.79;100257.76;106122;1270;139027;-70
2022/08/30 02:34:29;;;;;;;14.20;8.90;;;;;;;15.39;74.91;100262.38;106267;1269;96560;-70
2022/08/30 02:37:01;;;;;;;15.80;9.50;;;;;;;15.37;74.97;100265.11;106263;1271;111115;-70
2022/08/30 02:39:33;;;;;;;13.40;9.10;;;;;;;15.35;74.99;100266.63;106142;1270;138585;-70
2022/08/30 02:42:06;;;;;;;15.30;9.60;;;;;;;15.33;75.17;100265.85;106214;1270;107974;-70
2022/08/30 02:44:38;;;;;;;13.90;9.90;;;;;;;15.31;75.25;100267.55;107248;1270;139128;-70
2022/08/30 02:47:11;;;;;;;11.90;9.70;;;;;;;15.29;75.44;100269.56;106233;1271;96485;-70
2022/08/30 02:49:43;;;;;;;11.90;9.70;;;;;;;15.30;75.58;100274.43;106204;1270;139741;-71
2022/08/30 02:52:15;;;;;;;14.20;10.00;;;;;;;15.32;75.71;100274.52;106199;1270;108940;-70
2022/08/30 02:54:47;;;;;;;15.70;9.00;;;;;;;15.31;75.76;100273.30;106285;1271;108835;-70
2022/08/30 02:57:19;;;;;;;16.80;10.20;;;;;;;15.30;75.84;100271.44;106067;1271;138902;-70
2022/08/30 02:59:52;;;;;;;11.70;9.40;;;;;;;15.29;75.91;100273.79;106245;1271;96580;-70
2022/08/30 03:02:24;;;;;;;13.70;10.50;;;;;;;15.27;76.07;100273.20;106113;1271;138480;-70
2022/08/30 03:04:57;;;;;;;14.70;10.10;;;;;;;15.25;76.16;100274.34;106241;1271;108786;-70
2022/08/30 03:07:30;;;;;;;13.80;10.80;;;;;;;15.23;76.22;100272.69;106139;1271;139009;-69
2022/08/30 03:10:02;;;;;;;16.00;10.10;;;;;;;15.22;76.42;100277.46;106253;1271;96531;-69
2022/08/30 03:12:34;;;;;;;12.90;10.80;;;;;;;15.20;76.28;100280.39;106226;1270;96454;-70
2022/08/30 03:15:09;;;;;;;15.90;11.30;;;;;;;15.17;76.51;100284.92;106102;1271;139926;-70
2022/08/30 03:17:42;;;;;;;24.00;11.10;;;;;;;15.16;76.69;100286.40;106356;1271;108958;-70
2022/08/30 03:20:14;;;;;;;14.60;11.30;;;;;;;15.13;76.74;100287.38;106098;1271;138738;-70
2022/08/30 03:22:46;;;;;;;16.50;10.90;;;;;;;15.12;76.93;100289.18;106266;1271;96578;-70
2022/08/30 03:25:20;;;;;;;14.80;11.10;;;;;;;15.10;76.98;100290.34;106155;1271;138795;-69
2022/08/30 03:27:52;;;;;;;12.70;10.50;;;;;;;15.08;77.09;100291.64;106230;1270;111527;-70
2022/08/30 03:30:24;;;;;;;15.00;11.00;;;;;;;15.06;77.16;100290.65;106254;1271;108884;-70
2022/08/30 03:32:56;;;;;;;17.00;11.00;;;;;;;15.05;77.30;100287.06;106146;1270;138752;-70
2022/08/30 03:35:30;;;;;;;15.50;12.00;;;;;;;15.04;77.28;100285.55;106247;1270;96461;-70
2022/08/30 03:38:04;;;;;;;12.70;11.20;;;;;;;15.02;77.37;100288.80;106155;1270;138743;-70
2022/08/30 03:40:37;;;;;;;14.80;10.90;;;;;;;15.01;77.52;100289.02;106184;1272;110569;-70
2022/08/30 03:43:09;;;;;;;13.50;11.10;;;;;;;15.03;77.57;100289.61;106210;1271;109066;-70
2022/08/30 03:45:41;;;;;;;15.50;11.40;;;;;;;15.03;77.68;100287.86;106115;1271;138588;-70
2022/08/30 03:48:13;;;;;;;19.10;12.00;;;;;;;15.04;77.87;100288.71;107797;1271;94742;-71
2022/08/30 03:50:45;;;;;;;16.20;11.30;;;;;;;15.03;77.86;100287.18;107641;1271;139095;-71
2022/08/30 03:53:17;;;;;;;16.20;11.20;;;;;;;15.02;77.82;100287.59;107764;1271;111225;-71
2022/08/30 03:55:49;;;;;;;14.00;10.60;;;;;;;15.02;77.81;100288.59;107715;1270;139722;-70
2022/08/30 03:58:23;;;;;;;17.60;11.30;;;;;;;15.04;77.79;100289.75;107642;1270;108915;-70
2022/08/30 04:00:55;;;;;;;17.00;11.30;;;;;;;15.06;77.91;100289.11;106315;1270;96535;-69
2022/08/30 04:03:27;;;;;;;14.00;11.60;;;;;;;15.07;77.96;100293.78;107684;1270;139536;-71
2022/08/30 04:05:59;;;;;;;15.90;11.80;;;;;;;15.09;78.03;100295.09;107073;1270;111204;-70
2022/08/30 04:08:31;;;;;;;15.70;12.40;;;;;;;15.13;78.17;100295.63;106170;1270;138746;-69
2022/08/30 04:11:04;;;;;;;18.10;12.80;;;;;;;15.16;78.10;100295.27;106292;1270;108979;-70
2022/08/30 04:13:36;;;;;;;16.40;12.80;;;;;;;15.17;78.02;100292.77;107732;1270;140431;-70
2022/08/30 04:16:08;;;;;;;15.70;11.60;;;;;;;15.17;77.93;100295.92;106699;1270;97900;-70
2022/08/30 04:18:41;;;;;;;16.80;12.30;;;;;;;15.17;78.06;100295.42;106343;1270;110988;-69
2022/08/30 04:21:12;;;;;;;14.80;12.30;;;;;;;15.18;78.14;100294.11;106126;1270;138720;-69
2022/08/30 04:23:45;;;;;;;19.60;12.00;;;;;;;15.22;78.18;100299.91;106270;1270;108878;-71
2022/08/30 04:26:17;;;;;;;13.30;11.60;;;;;;;15.22;78.04;100297.80;106177;1270;138957;-71
2022/08/30 04:28:49;;;;;;;16.10;10.90;;;;;;;15.24;78.14;100300.32;106297;1270;96483;-71
2022/08/30 04:31:21;;;;;;;14.70;12.00;;;;;;;15.26;78.10;100304.61;106250;1270;138715;-71
2022/08/30 04:33:53;;;;;;;13.90;11.70;;;;;;;15.27;78.26;100306.64;106261;1271;108788;-69
2022/08/30 04:36:25;;;;;;;18.50;12.00;;;;;;;15.30;78.31;100306.52;106228;1273;109198;-72
2022/08/30 04:38:58;;;;;;;13.50;11.20;;;;;;;15.32;78.25;100305.19;106115;1272;140542;-70
2022/08/30 04:41:30;;;;;;;13.40;11.30;;;;;;;15.35;78.39;100311.64;106238;1270;96382;-70
2022/08/30 04:44:03;;;;;;;14.00;10.90;;;;;;;15.40;78.39;100313.17;106145;1270;140428;-70
2022/08/30 04:46:36;;;;;;;17.50;11.30;;;;;;;15.45;78.40;100316.94;107829;1271;109240;-70
2022/08/30 04:49:15;;;;;;;14.30;10.50;;;;;;;15.52;78.34;100320.27;107776;1271;107854;-70
2022/08/30 04:51:47;;;;;;;15.00;10.30;;;;;;;15.59;78.32;100323.41;107741;1271;94492;-71
2022/08/30 04:54:19;;;;;;;14.20;9.40;;;;;;;15.67;78.39;100329.14;107772;1271;94613;-71
2022/08/30 04:56:51;;;;;;;13.30;8.70;;;;;;;15.76;78.08;100326.06;107650;1271;139204;-71
2022/08/30 04:59:23;;;;;;;12.70;9.10;;;;;;;15.83;77.94;100326.76;107784;1271;108805;-71
2022/08/30 05:01:55;;;;;;;14.10;11.10;;;;;;;15.91;77.86;100327.00;106317;1273;139925;-71
2022/08/30 05:04:28;;;;;;;13.80;10.30;;;;;;;16.00;77.75;100329.34;106239;1270;96506;-70
2022/08/30 05:07:00;;;;;;;10.10;7.60;;;;;;;16.10;77.63;100327.05;106235;1273;96571;-70
2022/08/30 05:09:32;;;;;;;12.50;7.30;;;;;;;16.22;77.46;100330.45;106198;1270;138568;-71
2022/08/30 05:12:05;;;;;;;7.60;6.50;;;;;;;16.30;77.18;100328.92;106244;1271;108830;-72
2022/08/30 05:14:36;;;;;;;10.00;6.70;;;;;;;16.41;76.92;100332.70;107717;1270;138600;-71
2022/08/30 05:17:09;;;;;;;11.00;6.90;;;;;;;16.47;76.63;100331.84;107815;1270;94923;-71
2022/08/30 05:19:41;;;;;;;8.10;6.20;;;;;;;16.53;76.28;100331.38;107678;1271;138737;-71
2022/08/30 05:22:13;;;;;;;12.50;6.40;;;;;;;16.53;75.96;100332.07;107789;1271;111523;-71
2022/08/30 05:24:44;;;;;;;9.20;5.80;;;;;;;16.55;75.75;100336.38;107746;1271;109823;-71
2022/08/30 05:27:16;;;;;;;7.90;6.10;;;;;;;16.56;75.65;100333.16;107712;1268;138387;-71
2022/08/30 05:29:51;;;;;;;7.60;5.40;;;;;;;16.59;75.62;100332.09;107817;1270;94435;-71
2022/08/30 05:32:23;;;;;;;6.50;5.00;;;;;;;16.65;75.47;100333.84;107731;1270;138114;-71
2022/08/30 05:34:55;;;;;;;9.40;4.90;;;;;;;16.69;75.31;100338.58;107759;1271;110313;-72
2022/08/30 05:37:27;;;;;;;6.80;4.70;;;;;;;16.75;75.26;100335.11;107645;1271;139757;-71
2022/08/30 05:39:59;;;;;;;10.30;4.00;;;;;;;16.82;75.02;100332.92;107595;1270;106758;-73
2022/08/30 05:42:32;;;;;;;6.40;4.70;;;;;;;16.88;74.93;100336.11;106772;1270;96448;-75
2022/08/30 05:45:07;;;;;;;7.10;4.70;;;;;;;16.94;74.66;100337.54;106084;1270;139895;-74
2022/08/30 05:47:39;;;;;;;10.70;4.90;;;;;;;16.97;74.51;100333.30;106199;1270;110079;-73
2022/08/30 05:50:12;;;;;;;8.30;4.40;;;;;;;17.05;74.51;100338.50;107254;1270;139138;-73
2022/08/30 05:52:44;;;;;;;6.60;4.50;;;;;;;17.09;74.17;100340.33;107730;1271;108765;-73
2022/08/30 05:55:17;;;;;;;4.70;4.00;;;;;;;17.14;74.04;100340.77;107734;1271;94549;-73
2022/08/30 05:57:49;;;;;;;8.20;4.40;;;;;;;17.19;74.20;100337.09;107778;1271;95089;-74
2022/08/30 06:00:22;;;;;;;7.00;3.90;;;;;;;17.29;73.88;100339.86;107777;1271;110151;-76
2022/08/30 06:02:55;;;;;;;8.60;3.80;;;;;;;17.38;73.80;100334.94;107655;1271;139120;-73
2022/08/30 06:05:27;;;;;;;7.00;4.10;;;;;;;17.49;73.59;100341.31;107773;1271;108680;-73
2022/08/30 06:08:04;;;;;;;5.90;3.60;;;;;;;17.55;73.05;100340.98;107649;1271;138348;-75
2022/08/30 06:10:36;;;;;;;7.90;3.90;;;;;;;17.56;72.81;100338.48;107642;1271;94514;-73
2022/08/30 06:13:09;;;;;;;4.70;3.70;;;;;;;17.62;72.75;100344.63;106191;1271;111126;-75
2022/08/30 06:15:42;;;;;;;4.80;3.50;;;;;;;17.68;72.43;100341.10;106066;1271;140190;-75
2022/08/30 06:18:14;;;;;;;7.40;3.80;;;;;;;17.73;72.23;100342.88;106183;1272;108322;-77
2022/08/30 06:20:47;;;;;;;6.10;3.80;;;;;;;17.79;72.17;100348.54;106066;1271;138362;-74
2022/08/30 06:23:21;;;;;;;5.20;3.00;;;;;;;17.87;71.95;100350.84;106189;1271;96525;-74
2022/08/30 06:25:53;;;;;;;6.40;3.70;;;;;;;17.97;71.82;100354.79;106050;1271;138361;-76
2022/08/30 06:28:25;;;;;;;4.20;3.30;;;;;;;18.05;71.59;100357.30;106231;1270;108484;-76
2022/08/30 06:30:57;;;;;;;6.40;2.90;;;;;;;18.14;71.27;100359.27;106098;1271;109125;-73
2022/08/30 06:33:29;;;;;;;5.30;2.90;;;;;;;18.22;71.20;100355.58;106080;1271;138347;-76
2022/08/30 06:36:05;;;;;;;5.20;3.10;;;;;;;18.27;70.92;100364.43;106209;1273;96509;-75
2022/08/30 06:38:38;;;;;;;6.10;3.00;;;;;;;18.28;70.58;100365.93;106128;1271;138155;-75
2022/08/30 06:41:12;;;;;;;6.30;3.50;;;;;;;18.25;70.40;100363.33;106212;1270;109234;-73
2022/08/30 06:43:44;;;;;;;5.10;3.10;;;;;;;18.27;70.65;100359.80;106018;1270;139552;-76
2022/08/30 06:46:22;;;;;;;4.30;2.80;;;;;;;18.30;70.38;100360.71;106104;1273;96954;-75
2022/08/30 06:48:55;;;;;;;4.60;3.10;;;;;;;18.34;70.28;100364.65;106215;1271;96438;-76
2022/08/30 06:51:30;;;;;;;5.20;3.00;;;;;;;18.35;70.06;100366.38;106141;1270;138182;-76
2022/08/30 06:54:03;;;;;;;7.50;2.60;;;;;;;18.34;70.00;100371.70;106242;1270;107290;-76
2022/08/30 06:56:41;;;;;;;4.80;2.40;;;;;;;18.37;69.94;100373.45;106138;1270;138557;-75
2022/08/30 06:59:31;;;;;;;5.00;2.90;;;;;;;18.33;69.80;100375.45;106216;1270;96542;-75
2022/08/30 07:02:03;;;;;;;6.10;2.80;;;;;;;18.33;69.99;100375.49;106068;1270;140539;-73
2022/08/30 07:04:37;;;;;;;7.20;3.20;;;;;;;18.34;69.97;100379.65;106131;1271;111085;-74
2022/08/30 07:07:11;;;;;;;6.20;3.10;;;;;;;18.28;69.91;100382.44;106093;1271;108390;-74
2022/08/30 07:09:43;;;;;;;5.80;3.00;;;;;;;18.25;69.86;100389.33;106168;1271;109170;-76
2022/08/30 07:12:15;;;;;;;7.30;3.30;;;;;;;18.22;69.97;100393.60;106140;1271;96660;-76
2022/08/30 07:14:48;;;;;;;5.40;3.10;;;;;;;18.18;69.96;100393.47;106093;1270;138168;-76
2022/08/30 07:20:12;;;;;;;3.80;2.40;;;;;;;18.17;70.28;100399.04;106039;1271;140258;-76
2022/08/30 07:22:44;;;;;;;8.30;2.70;;;;;;;18.21;70.42;100401.06;106265;1270;108811;-75
2022/08/30 07:25:17;;;;;;;4.60;2.60;;;;;;;18.25;70.18;100402.73;106086;1270;96488;-75
2022/08/30 07:27:51;;;;;;;4.90;2.70;;;;;;;18.30;70.12;100405.05;106184;1270;96375;-75
2022/08/30 07:30:23;;;;;;;6.10;2.90;;;;;;;18.34;70.06;100404.13;106259;1270;111096;-75
2022/08/30 07:32:55;;;;;;;9.10;3.50;;;;;;;18.41;69.89;100410.16;106090;1270;138722;-75
2022/08/30 07:35:28;;;;;;;4.00;3.20;;;;;;;18.49;69.71;100406.54;106184;1270;108737;-76
2022/08/30 07:38:00;;;;;;;5.40;3.10;;;;;;;18.54;69.52;100409.69;106080;1271;138552;-75
2022/08/30 07:40:32;;;;;;;6.50;3.20;;;;;;;18.78;69.56;100408.96;106129;1271;96514;-75
2022/08/30 07:43:04;;;;;;;7.00;3.50;;;;;;;18.95;69.21;100414.01;106190;1271;110019;-75
2022/08/30 07:45:38;;;;;;;6.20;3.30;;;;;;;19.05;68.97;100405.79;106017;1271;139357;-76
2022/08/30 07:48:11;;;;;;;7.60;3.00;;;;;;;19.13;68.76;100407.23;106156;1271;108835;-75
2022/08/30 07:50:47;;;;;;;6.60;3.30;;;;;;;19.19;68.86;100409.62;106029;1271;138404;-76
2022/08/30 07:53:19;;;;;;;6.50;3.20;;;;;;;19.36;68.83;100411.00;106089;1271;96592;-76
2022/08/30 07:55:51;;;;;;;6.70;2.80;;;;;;;19.56;68.34;100413.17;105899;1271;139199;-75
2022/08/30 07:58:23;;;;;;;3.90;2.30;;;;;;;19.71;67.64;100411.31;106090;1271;108937;-76
2022/08/30 08:00:58;;;;;;;4.90;3.00;;;;;;;19.77;67.57;100411.92;106123;1271;107735;-75
2022/08/30 08:03:30;;;;;;;2.80;1.80;;;;;;;19.88;67.02;100414.70;105998;1271;139236;-75
2022/08/30 08:06:04;;;;;;;3.90;2.10;;;;;;;19.88;66.51;100415.95;106154;1271;96487;-73
2022/08/30 08:08:36;;;;;;;3.50;2.00;;;;;;;19.80;66.21;100420.23;106079;1271;138239;-74
2022/08/30 08:11:12;;;;;;;4.30;2.30;;;;;;;19.70;65.90;100419.00;106091;1271;109207;-75
2022/08/30 08:13:49;;;;;;;4.70;2.00;;;;;;;19.67;66.25;100424.48;106012;1271;138672;-75
2022/08/30 08:16:33;;;;;;;4.00;1.90;;;;;;;19.77;66.63;100422.39;106133;1271;96498;-75
2022/08/30 08:19:07;;;;;;;3.70;2.30;;;;;;;20.31;66.45;100423.09;106151;1271;96492;-75
2022/08/30 08:21:40;;;;;;;3.50;1.70;;;;;;;20.81;65.55;100417.95;107624;1271;138141;-75
2022/08/30 08:24:12;;;;;;;3.90;2.00;;;;;;;21.15;65.14;100422.73;106235;1271;109236;-74
2022/08/30 08:26:44;;;;;;;2.40;1.80;;;;;;;21.44;64.08;100416.55;105997;1271;139841;-74
2022/08/30 08:29:16;;;;;;;3.60;1.80;;;;;;;21.58;63.35;100420.61;106137;1271;96497;-75
2022/08/30 08:31:49;;;;;;;3.30;1.60;;;;;;;21.64;63.15;100420.89;106019;1271;138410;-76
2022/08/30 08:34:22;;;;;;;3.90;1.80;;;;;;;21.64;62.53;100424.70;106145;1271;110213;-76
2022/08/30 08:36:54;;;;;;;4.20;2.00;;;;;;;21.63;62.24;100426.02;106176;1271;108855;-76
2022/08/30 08:39:26;;;;;;;2.50;1.40;;;;;;;21.56;61.67;100431.20;105937;1271;137854;-76
2022/08/30 08:42:15;;;;;;;3.40;1.60;;;;;;;21.50;61.88;100433.20;106098;1271;96501;-76
2022/08/30 08:44:56;;;;;;;5.40;3.30;;;;;;;21.59;61.83;100428.98;106079;1271;137474;-76
2022/08/30 08:47:36;;;;;;;5.20;2.60;;;;;;;21.80;61.62;100430.27;106200;1271;110114;-76
2022/08/30 08:50:13;;;;;;;2.50;1.30;;;;;;;21.91;60.97;100429.06;106054;1271;137662;-76
2022/08/30 08:56:01;;;;;;;3.80;1.50;;;;;;;22.28;60.54;100438.63;106050;1271;137853;-73
2022/08/30 08:58:40;;;;;;;2.40;1.30;;;;;;;22.42;59.91;100433.84;106190;1271;96372;-76
2022/08/30 09:01:15;;;;;;;3.10;1.90;;;;;;;22.54;59.39;100436.23;106154;1271;112212;-74
2022/08/30 09:03:48;;;;;;;1.20;1.10;;;;;;;22.59;59.09;100434.52;106155;1271;106942;-75
2022/08/30 09:06:43;;;;;;;3.20;1.90;;;;;;;22.61;58.77;100436.51;106085;1271;108162;-75
2022/08/30 09:09:19;;;;;;;3.00;1.60;;;;;;;22.71;58.65;100441.23;106079;1270;138031;-75
2022/08/30 09:11:51;;;;;;;3.20;1.20;;;;;;;22.75;58.14;100439.13;106482;1271;96642;-74
2022/08/30 09:14:25;;;;;;;1.30;0.80;;;;;;;22.68;57.74;100438.16;106043;1271;137898;-76
2022/08/30 09:17:03;;;;;;;1.70;1.00;;;;;;;22.72;57.89;100441.39;106099;1271;107654;-74
2022/08/30 09:19:44;;;;;;;4.60;1.30;;;;;;;22.82;57.75;100439.10;106041;1271;137978;-72
2022/08/30 09:22:26;;;;;;;3.30;1.10;;;;;;;22.93;57.68;100435.98;107690;1271;94681;-74
2022/08/30 09:25:05;;;;;;;1.60;1.00;;;;;;;23.00;57.32;100431.33;107779;1270;94667;-73
2022/08/30 09:27:40;;;;;;;1.70;1.10;;;;;;;23.01;56.87;100434.63;107647;1271;137526;-74
2022/08/30 09:30:19;;;;;;;2.50;1.40;;;;;;;22.92;56.53;100438.32;107775;1271;108876;-74
2022/08/30 09:32:55;;;;;;;1.40;1.10;;;;;;;22.85;56.64;100448.36;107607;1271;138616;-74
2022/08/30 09:35:35;;;;;;;3.30;1.30;;;;;;;22.72;56.72;100443.81;106485;1271;97022;-73
2022/08/30 09:38:10;;;;;;;2.50;1.00;;;;;;;22.56;56.93;100446.48;107046;1270;138029;-72
2022/08/30 09:40:47;;;;;;;2.50;1.10;;;;;;;22.51;57.49;100447.80;106772;1271;111428;-74
2022/08/30 09:43:24;;;;;;;3.30;1.20;;;;;;;22.63;57.78;100448.98;106532;1271;138338;-72
2022/08/30 09:46:11;;;;;;;3.90;1.00;;;;;;;22.72;57.72;100445.08;107693;1271;108722;-73
2022/08/30 09:48:47;;;;;;;2.20;0.90;;;;;;;22.75;57.50;100448.90;107160;1271;96510;-73
2022/08/30 09:51:42;;;;;;;2.90;0.90;;;;;;;22.72;57.09;100452.11;106127;1271;137627;-73
2022/08/30 09:54:25;;;;;;;2.70;1.10;;;;;;;22.55;56.67;100449.11;106241;1271;110927;-74
2022/08/30 09:57:11;;;;;;;2.40;0.90;;;;;;;22.32;56.69;100450.56;106760;1271;137968;-74
2022/08/30 09:59:53;;;;;;;3.00;1.40;;;;;;;22.16;56.94;100451.95;106225;1271;108847;-75
2022/08/30 10:02:56;;;;;;;2.70;1.00;;;;;;;22.08;57.31;100447.08;106141;1270;137769;-75
2022/08/30 10:05:35;;;;;;;2.20;1.20;;;;;;;22.04;57.53;100444.21;106185;1271;96523;-73
2022/08/30 10:08:17;;;;;;;2.00;1.00;;;;;;;22.03;57.69;100443.86;107658;1270;137616;-74
2022/08/30 10:10:53;;;;;;;2.40;1.10;;;;;;;21.98;57.48;100450.80;107752;1271;108872;-73
2022/08/30 10:13:53;;;;;;;2.20;1.00;;;;;;;21.89;57.72;100450.33;106526;1271;138187;-72
2022/08/30 10:16:40;;;;;;;1.90;1.00;;;;;;;21.81;57.92;100456.77;106701;1270;96462;-73
2022/08/30 10:19:24;;;;;;;4.00;2.20;;;;;;;21.82;57.87;100454.70;107859;1271;94797;-73
2022/08/30 10:22:01;;;;;;;2.70;1.00;;;;;;;21.88;58.09;100457.41;107817;1271;111191;-74
2022/08/30 10:24:38;;;;;;;2.40;1.60;;;;;;;21.85;57.92;100459.95;107853;1271;108823;-74
2022/08/30 10:27:16;;;;;;;2.60;1.20;;;;;;;21.78;57.75;100461.21;106513;1271;138425;-74
2022/08/30 10:29:54;;;;;;;2.60;1.20;;;;;;;21.62;58.10;100465.27;106280;1271;96497;-75
2022/08/30 10:32:32;;;;;;;1.00;0.70;;;;;;;21.49;58.50;100467.27;106587;1270;137678;-76
2022/08/30 10:35:08;;;;;;;2.10;1.10;;;;;;;21.41;58.93;100469.27;107792;1271;111152;-75
2022/08/30 10:37:46;;;;;;;1.80;1.10;;;;;;;21.31;59.04;100466.80;107595;1271;137854;-75
2022/08/30 10:43:26;;;;;;;5.80;1.30;;;;;;;21.29;59.90;100473.35;107754;1270;94701;-75
2022/08/30 10:46:03;;;;;;;3.30;1.10;;;;;;;21.36;59.77;100469.48;107760;1270;94616;-74
2022/08/30 10:48:41;;;;;;;2.30;1.10;;;;;;;21.37;59.65;100465.66;106815;1271;111221;-76
2022/08/30 10:51:25;;;;;;;4.70;1.30;;;;;;;21.38;59.76;100470.94;106115;1271;138488;-76
2022/08/30 10:54:02;;;;;;;3.00;1.60;;;;;;;21.41;59.72;100465.89;106253;1271;108894;-72
2022/08/30 10:56:38;;;;;;;2.40;1.20;;;;;;;21.41;59.78;100469.63;106128;1270;138586;-73
2022/08/30 10:59:11;;;;;;;3.40;0.90;;;;;;;21.37;59.70;100464.42;106288;1271;96469;-73
2022/08/30 11:02:08;;;;;;;6.20;1.20;;;;;;;21.29;59.58;100467.65;106008;1271;138368;-73
2022/08/30 11:05:20;;;;;;;2.70;1.40;;;;;;;21.23;59.79;100469.04;106139;1271;108849;-70
2022/08/30 11:08:05;;;;;;;0.80;0.70;;;;;;;21.18;59.90;100467.25;106016;1271;138556;-71
2022/08/30 11:10:50;;;;;;;1.60;1.00;;;;;;;21.14;59.87;100465.59;107757;1270;94789;-73
2022/08/30 11:13:26;;;;;;;27.80;2.90;;;;;;;21.07;59.86;100462.72;107666;1271;138764;-74
2022/08/30 11:16:02;;;;;;;3.00;1.00;;;;;;;21.06;59.73;100464.06;107711;1271;110975;-73
2022/08/30 11:18:43;;;;;;;4.40;1.10;;;;;;;21.08;59.93;100459.45;107702;1271;109523;-73
2022/08/30 11:21:26;;;;;;;;;;;;;;;21.11;59.72;100459.21;107631;1271;138271;-73
2022/08/30 11:24:08;;;;;;;2.30;0.80;;;;;;;21.11;59.64;100458.69;107721;1271;94650;-74
2022/08/30 11:27:01;;;;;;;0.90;0.70;;;;;;;21.17;59.71;100454.05;107678;1271;138368;-73
2022/08/30 11:29:37;;;;;;;1.00;0.60;;;;;;;21.24;59.64;100457.77;107734;1271;110094;-72
2022/08/30 11:32:55;;;;;;;2.00;0.80;;;;;;;21.32;59.22;100459.31;107634;1271;138370;-72
2022/08/30 11:35:42;;;;;;;2.40;1.10;;;;;;;21.38;59.03;100461.77;106947;1271;108834;-74
2022/08/30 11:38:41;;;;;;;1.30;0.70;;;;;;;21.43;58.72;100460.45;106058;1271;138752;-72
2022/08/30 11:41:33;;;;;;;1.50;1.00;;;;;;;21.50;58.19;100460.65;106091;1271;96459;-73
2022/08/30 11:44:28;;;;;;;1.30;0.60;;;;;;;21.61;57.82;100461.41;106087;1271;138683;-73
2022/08/30 11:47:02;;;;;;;3.30;0.70;;;;;;;21.70;57.75;100461.10;106189;1271;107776;-70
2022/08/30 11:49:58;;;;;;;1.30;0.60;;;;;;;21.79;57.45;100455.98;106030;1271;137827;-72
2022/08/30 11:52:42;;;;;;;2.50;0.70;;;;;;;21.88;56.93;100455.99;106164;1271;96588;-73